sensor_id;sensor_type;location;lat;lon;timestamp;pressure;altitude;pressure_sealevel;temperature;humidity
7333;BME280;3707;43.618;25.342;2023-07-31T00:00:11;99514.19;;;23.13;100.00
7333;BME280;3707;43.618;25.342;2023-07-31T00:02:38;99507.09;;;23.14;100.00
7333;BME280;3707;43.618;25.342;2023-07-31T00:05:05;99499.56;;;22.86;100.00
7333;BME280;3707;43.618;25.342;2023-07-31T00:07:33;99505.81;;;22.84;100.00
7333;BME280;3707;43.618;25.342;2023-07-31T00:10:00;99476.88;;;22.60;100.00
7333;BME280;3707;43.618;25.342;2023-07-31T00:12:27;99489.47;;;22.76;100.00
7333;BME280;3707;43.618;25.342;2023-07-31T00:14:54;99478.69;;;22.58;100.00
7333;BME280;3707;43.618;25.342;2023-07-31T00:17:21;99480.50;;;22.58;100.00
7333;BME280;3707;43.618;25.342;2023-07-31T00:19:48;99477.47;;;22.47;100.00
7333;BME280;3707;43.618;25.342;2023-07-31T00:22:16;99467.69;;;22.29;100.00
7333;BME280;3707;43.618;25.342;2023-07-31T00:24:44;99453.16;;;22.18;100.00
7333;BME280;3707;43.618;25.342;2023-07-31T00:27:11;99469.78;;;22.20;100.00
7333;BME280;3707;43.618;25.342;2023-07-31T00:29:37;99466.69;;;22.11;100.00
7333;BME280;3707;43.618;25.342;2023-07-31T00:32:05;99433.00;;;21.96;100.00
7333;BME280;3707;43.618;25.342;2023-07-31T00:34:32;99443.50;;;21.97;100.00
7333;BME280;3707;43.618;25.342;2023-07-31T00:36:59;99446.53;;;22.08;100.00
7333;BME280;3707;43.618;25.342;2023-07-31T00:39:25;99442.84;;;22.12;100.00
7333;BME280;3707;43.618;25.342;2023-07-31T00:41:54;99442.19;;;22.28;100.00
7333;BME280;3707;43.618;25.342;2023-07-31T00:44:20;99444.50;;;22.35;100.00
7333;BME280;3707;43.618;25.342;2023-07-31T00:46:47;99443.50;;;22.38;100.00
7333;BME280;3707;43.618;25.342;2023-07-31T00:49:14;99448.00;;;22.56;100.00
7333;BME280;3707;43.618;25.342;2023-07-31T00:51:41;99455.78;;;22.59;100.00
7333;BME280;3707;43.618;25.342;2023-07-31T00:54:08;99452.22;;;22.80;100.00
7333;BME280;3707;43.618;25.342;2023-07-31T00:56:35;99438.03;;;22.83;100.00
7333;BME280;3707;43.618;25.342;2023-07-31T00:59:04;99438.81;;;22.85;100.00
7333;BME280;3707;43.618;25.342;2023-07-31T01:01:31;99437.88;;;22.65;100.00
7333;BME280;3707;43.618;25.342;2023-07-31T01:03:58;99425.41;;;22.69;100.00
7333;BME280;3707;43.618;25.342;2023-07-31T01:06:30;99408.09;;;22.82;100.00
7333;BME280;3707;43.618;25.342;2023-07-31T01:09:03;99441.81;;;22.96;100.00
7333;BME280;3707;43.618;25.342;2023-07-31T01:11:31;99452.69;;;22.90;100.00
7333;BME280;3707;43.618;25.342;2023-07-31T01:13:59;99455.72;;;22.81;100.00
7333;BME280;3707;43.618;25.342;2023-07-31T01:16:28;99451.31;;;22.81;100.00
7333;BME280;3707;43.618;25.342;2023-07-31T01:18:54;99450.28;;;22.84;100.00
7333;BME280;3707;43.618;25.342;2023-07-31T01:21:56;99408.16;;;22.60;100.00
7333;BME280;3707;43.618;25.342;2023-07-31T01:24:29;99442.03;;;22.91;100.00
7333;BME280;3707;43.618;25.342;2023-07-31T01:27:06;99442.81;;;22.93;100.00
7333;BME280;3707;43.618;25.342;2023-07-31T01:29:39;99465.91;;;23.08;100.00
7333;BME280;3707;43.618;25.342;2023-07-31T01:32:09;99477.50;;;23.06;100.00
7333;BME280;3707;43.618;25.342;2023-07-31T01:34:37;99488.88;;;23.08;100.00
7333;BME280;3707;43.618;25.342;2023-07-31T01:37:05;99479.56;;;22.99;100.00
7333;BME280;3707;43.618;25.342;2023-07-31T01:39:32;99481.53;;;22.94;100.00
7333;BME280;3707;43.618;25.342;2023-07-31T01:41:59;99481.53;;;22.94;100.00
7333;BME280;3707;43.618;25.342;2023-07-31T01:44:27;99496.81;;;22.88;100.00
7333;BME280;3707;43.618;25.342;2023-07-31T01:46:54;99477.19;;;22.93;100.00
7333;BME280;3707;43.618;25.342;2023-07-31T01:49:20;99482.19;;;22.99;100.00
7333;BME280;3707;43.618;25.342;2023-07-31T01:51:47;99494.03;;;23.11;100.00
7333;BME280;3707;43.618;25.342;2023-07-31T01:54:14;99490.53;;;23.10;100.00
7333;BME280;3707;43.618;25.342;2023-07-31T01:56:41;99485.94;;;23.14;100.00
7333;BME280;3707;43.618;25.342;2023-07-31T01:59:07;99491.75;;;23.22;100.00
7333;BME280;3707;43.618;25.342;2023-07-31T02:01:36;99491.47;;;23.28;100.00
7333;BME280;3707;43.618;25.342;2023-07-31T02:04:03;99493.88;;;23.14;100.00
7333;BME280;3707;43.618;25.342;2023-07-31T02:06:30;99501.53;;;23.20;100.00
7333;BME280;3707;43.618;25.342;2023-07-31T02:08:57;99504.38;;;23.15;100.00
7333;BME280;3707;43.618;25.342;2023-07-31T02:11:23;99500.75;;;23.18;100.00
7333;BME280;3707;43.618;25.342;2023-07-31T02:13:50;99508.41;;;23.24;100.00
7333;BME280;3707;43.618;25.342;2023-07-31T02:16:17;99511.75;;;23.28;100.00
7333;BME280;3707;43.618;25.342;2023-07-31T02:18:45;99519.91;;;23.43;100.00
7333;BME280;3707;43.618;25.342;2023-07-31T02:21:12;99513.63;;;23.26;100.00
7333;BME280;3707;43.618;25.342;2023-07-31T02:23:39;99515.06;;;23.33;100.00
7333;BME280;3707;43.618;25.342;2023-07-31T02:26:05;99516.13;;;23.29;100.00
7333;BME280;3707;43.618;25.342;2023-07-31T02:28:32;99513.03;;;23.19;100.00
7333;BME280;3707;43.618;25.342;2023-07-31T02:30:59;99490.81;;;23.04;100.00
7333;BME280;3707;43.618;25.342;2023-07-31T02:33:26;99510.28;;;23.22;100.00
7333;BME280;3707;43.618;25.342;2023-07-31T02:35:54;99510.59;;;23.33;100.00
7333;BME280;3707;43.618;25.342;2023-07-31T02:38:20;99498.59;;;23.26;100.00
7333;BME280;3707;43.618;25.342;2023-07-31T02:40:47;99499.19;;;23.33;100.00
7333;BME280;3707;43.618;25.342;2023-07-31T02:43:14;99482.59;;;23.29;100.00
7333;BME280;3707;43.618;25.342;2023-07-31T02:45:41;99493.25;;;23.28;100.00
7333;BME280;3707;43.618;25.342;2023-07-31T02:48:07;99480.44;;;23.18;100.00
7333;BME280;3707;43.618;25.342;2023-07-31T02:50:34;99420.63;;;22.77;100.00
7333;BME280;3707;43.618;25.342;2023-07-31T02:53:03;99493.00;;;23.13;100.00
7333;BME280;3707;43.618;25.342;2023-07-31T02:55:29;99489.88;;;23.24;100.00
7333;BME280;3707;43.618;25.342;2023-07-31T02:57:56;99487.44;;;23.19;100.00
7333;BME280;3707;43.618;25.342;2023-07-31T03:00:23;99496.03;;;23.25;100.00
7333;BME280;3707;43.618;25.342;2023-07-31T03:02:50;99494.06;;;23.09;100.00
7333;BME280;3707;43.618;25.342;2023-07-31T03:05:17;99498.16;;;23.16;100.00
7333;BME280;3707;43.618;25.342;2023-07-31T03:07:43;99494.22;;;23.06;100.00
7333;BME280;3707;43.618;25.342;2023-07-31T03:10:12;99495.72;;;23.12;100.00
7333;BME280;3707;43.618;25.342;2023-07-31T03:12:39;99498.75;;;23.04;100.00
7333;BME280;3707;43.618;25.342;2023-07-31T03:15:07;99481.53;;;22.94;100.00
7333;BME280;3707;43.618;25.342;2023-07-31T03:17:34;99473.22;;;22.83;100.00
7333;BME280;3707;43.618;25.342;2023-07-31T03:20:01;99479.94;;;22.71;100.00
7333;BME280;3707;43.618;25.342;2023-07-31T03:22:27;99481.09;;;22.85;100.00
7333;BME280;3707;43.618;25.342;2023-07-31T03:24:54;99491.63;;;22.86;100.00
7333;BME280;3707;43.618;25.342;2023-07-31T03:27:22;99485.53;;;22.84;100.00
7333;BME280;3707;43.618;25.342;2023-07-31T03:29:49;99489.22;;;22.80;100.00
7333;BME280;3707;43.618;25.342;2023-07-31T03:32:17;99493.16;;;22.71;100.00
7333;BME280;3707;43.618;25.342;2023-07-31T03:34:43;99496.53;;;22.75;100.00
7333;BME280;3707;43.618;25.342;2023-07-31T03:37:10;99492.22;;;22.72;100.00
7333;BME280;3707;43.618;25.342;2023-07-31T03:39:37;99495.72;;;22.73;100.00
7333;BME280;3707;43.618;25.342;2023-07-31T03:42:04;99476.69;;;22.65;100.00
7333;BME280;3707;43.618;25.342;2023-07-31T03:44:32;99492.09;;;22.76;100.00
7333;BME280;3707;43.618;25.342;2023-07-31T03:46:59;99489.50;;;22.74;100.00
7333;BME280;3707;43.618;25.342;2023-07-31T03:49:27;99491.22;;;22.75;100.00
7333;BME280;3707;43.618;25.342;2023-07-31T03:51:54;99491.22;;;22.75;100.00
7333;BME280;3707;43.618;25.342;2023-07-31T03:54:21;99490.09;;;22.81;100.00
7333;BME280;3707;43.618;25.342;2023-07-31T03:56:48;99473.13;;;22.86;100.00
7333;BME280;3707;43.618;25.342;2023-07-31T03:59:14;99495.38;;;23.01;100.00
7333;BME280;3707;43.618;25.342;2023-07-31T04:01:42;99514.03;;;23.16;100.00
7333;BME280;3707;43.618;25.342;2023-07-31T04:04:09;99511.81;;;23.26;100.00
7333;BME280;3707;43.618;25.342;2023-07-31T04:06:36;99513.47;;;23.29;100.00
7333;BME280;3707;43.618;25.342;2023-07-31T04:09:03;99513.50;;;23.47;100.00
7333;BME280;3707;43.618;25.342;2023-07-31T04:11:30;99513.25;;;23.53;100.00
7333;BME280;3707;43.618;25.342;2023-07-31T04:13:56;99525.97;;;23.64;100.00
7333;BME280;3707;43.618;25.342;2023-07-31T04:16:23;99531.78;;;23.72;100.00
7333;BME280;3707;43.618;25.342;2023-07-31T04:18:51;99528.31;;;23.70;100.00
7333;BME280;3707;43.618;25.342;2023-07-31T04:21:18;99516.81;;;23.52;100.00
7333;BME280;3707;43.618;25.342;2023-07-31T04:23:45;99542.22;;;23.75;100.00
7333;BME280;3707;43.618;25.342;2023-07-31T04:26:11;99529.38;;;23.66;100.00
7333;BME280;3707;43.618;25.342;2023-07-31T04:28:38;99544.84;;;23.75;100.00
7333;BME280;3707;43.618;25.342;2023-07-31T04:31:05;99544.28;;;23.68;100.00
7333;BME280;3707;43.618;25.342;2023-07-31T04:33:31;99540.94;;;23.65;100.00
7333;BME280;3707;43.618;25.342;2023-07-31T04:36:00;99550.81;;;23.61;100.00
7333;BME280;3707;43.618;25.342;2023-07-31T04:38:26;99533.97;;;23.62;100.00
7333;BME280;3707;43.618;25.342;2023-07-31T04:40:53;99547.28;;;23.61;100.00
7333;BME280;3707;43.618;25.342;2023-07-31T04:43:20;99540.84;;;23.66;100.00
7333;BME280;3707;43.618;25.342;2023-07-31T04:45:47;99547.63;;;23.91;100.00
7333;BME280;3707;43.618;25.342;2023-07-31T04:48:15;99554.22;;;23.82;100.00
7333;BME280;3707;43.618;25.342;2023-07-31T04:50:42;99545.13;;;23.69;100.00
7333;BME280;3707;43.618;25.342;2023-07-31T04:53:10;99557.69;;;24.01;100.00
7333;BME280;3707;43.618;25.342;2023-07-31T04:55:37;99560.69;;;24.12;100.00
7333;BME280;3707;43.618;25.342;2023-07-31T04:58:04;99575.38;;;24.19;100.00
7333;BME280;3707;43.618;25.342;2023-07-31T05:00:30;99569.38;;;24.16;100.00
7333;BME280;3707;43.618;25.342;2023-07-31T05:02:57;99568.94;;;24.06;100.00
7333;BME280;3707;43.618;25.342;2023-07-31T05:05:24;99570.50;;;24.10;100.00
7333;BME280;3707;43.618;25.342;2023-07-31T05:07:51;99588.81;;;24.34;100.00
7333;BME280;3707;43.618;25.342;2023-07-31T05:10:19;99584.22;;;24.37;100.00
7333;BME280;3707;43.618;25.342;2023-07-31T05:12:45;99581.13;;;24.46;100.00
7333;BME280;3707;43.618;25.342;2023-07-31T05:15:12;99534.25;;;24.30;100.00
7333;BME280;3707;43.618;25.342;2023-07-31T05:17:39;99589.31;;;24.76;100.00
7333;BME280;3707;43.618;25.342;2023-07-31T05:20:07;99587.06;;;24.68;100.00
7333;BME280;3707;43.618;25.342;2023-07-31T05:22:34;99593.78;;;24.76;100.00
7333;BME280;3707;43.618;25.342;2023-07-31T05:25:01;99600.22;;;24.89;100.00
7333;BME280;3707;43.618;25.342;2023-07-31T05:27:29;99613.53;;;24.87;100.00
7333;BME280;3707;43.618;25.342;2023-07-31T05:29:56;99608.53;;;24.81;100.00
7333;BME280;3707;43.618;25.342;2023-07-31T05:32:23;99610.81;;;24.89;100.00
7333;BME280;3707;43.618;25.342;2023-07-31T05:34:50;99611.84;;;24.86;100.00
7333;BME280;3707;43.618;25.342;2023-07-31T05:37:17;99599.31;;;24.71;100.00
7333;BME280;3707;43.618;25.342;2023-07-31T05:39:44;99612.97;;;24.81;100.00
7333;BME280;3707;43.618;25.342;2023-07-31T05:42:11;99613.34;;;24.73;100.00
7333;BME280;3707;43.618;25.342;2023-07-31T05:44:39;99607.28;;;24.71;100.00
7333;BME280;3707;43.618;25.342;2023-07-31T05:47:06;99602.72;;;24.39;100.00
7333;BME280;3707;43.618;25.342;2023-07-31T05:49:33;99596.50;;;24.02;100.00
7333;BME280;3707;43.618;25.342;2023-07-31T05:52:00;99596.94;;;23.93;100.00
7333;BME280;3707;43.618;25.342;2023-07-31T05:54:27;99589.88;;;23.75;100.00
7333;BME280;3707;43.618;25.342;2023-07-31T05:56:53;99581.03;;;23.56;100.00
7333;BME280;3707;43.618;25.342;2023-07-31T05:59:20;99586.19;;;23.59;100.00
7333;BME280;3707;43.618;25.342;2023-07-31T06:01:48;99593.66;;;24.07;100.00
7333;BME280;3707;43.618;25.342;2023-07-31T06:04:15;99598.16;;;24.24;100.00
7333;BME280;3707;43.618;25.342;2023-07-31T06:06:42;99601.97;;;24.18;100.00
7333;BME280;3707;43.618;25.342;2023-07-31T06:09:09;99609.09;;;24.35;100.00
7333;BME280;3707;43.618;25.342;2023-07-31T06:11:37;99602.53;;;24.25;100.00
7333;BME280;3707;43.618;25.342;2023-07-31T06:14:03;99592.94;;;24.22;100.00
7333;BME280;3707;43.618;25.342;2023-07-31T06:16:30;99581.69;;;24.17;100.00
7333;BME280;3707;43.618;25.342;2023-07-31T06:18:58;99600.06;;;24.39;100.00
7333;BME280;3707;43.618;25.342;2023-07-31T06:21:25;99607.47;;;24.32;100.00
7333;BME280;3707;43.618;25.342;2023-07-31T06:23:52;99610.63;;;24.22;100.00
7333;BME280;3707;43.618;25.342;2023-07-31T06:26:19;99605.25;;;24.23;100.00
7333;BME280;3707;43.618;25.342;2023-07-31T06:28:45;99596.38;;;24.24;100.00
7333;BME280;3707;43.618;25.342;2023-07-31T06:31:12;99618.31;;;24.45;100.00
7333;BME280;3707;43.618;25.342;2023-07-31T06:33:39;99617.16;;;24.86;100.00
7333;BME280;3707;43.618;25.342;2023-07-31T06:36:07;99608.31;;;25.03;100.00
7333;BME280;3707;43.618;25.342;2023-07-31T06:38:34;99623.75;;;25.29;100.00
7333;BME280;3707;43.618;25.342;2023-07-31T06:41:01;99638.72;;;25.64;100.00
7333;BME280;3707;43.618;25.342;2023-07-31T06:43:27;99618.84;;;25.87;100.00
7333;BME280;3707;43.618;25.342;2023-07-31T06:45:54;99650.44;;;26.40;100.00
7333;BME280;3707;43.618;25.342;2023-07-31T06:48:21;99630.97;;;26.24;100.00
7333;BME280;3707;43.618;25.342;2023-07-31T06:50:48;99651.13;;;26.44;100.00
7333;BME280;3707;43.618;25.342;2023-07-31T06:53:16;99636.97;;;26.43;100.00
7333;BME280;3707;43.618;25.342;2023-07-31T06:55:43;99647.91;;;25.90;100.00
7333;BME280;3707;43.618;25.342;2023-07-31T06:58:09;99647.16;;;26.04;100.00
7333;BME280;3707;43.618;25.342;2023-07-31T07:00:36;99647.31;;;25.85;100.00
7333;BME280;3707;43.618;25.342;2023-07-31T07:03:03;99636.59;;;26.02;100.00
7333;BME280;3707;43.618;25.342;2023-07-31T07:05:30;99668.44;;;26.51;100.00
7333;BME280;3707;43.618;25.342;2023-07-31T07:07:56;99604.78;;;26.48;100.00
7333;BME280;3707;43.618;25.342;2023-07-31T07:10:24;99667.63;;;26.96;100.00
7333;BME280;3707;43.618;25.342;2023-07-31T07:12:53;99677.94;;;26.86;100.00
7333;BME280;3707;43.618;25.342;2023-07-31T07:15:20;99666.22;;;27.04;100.00
7333;BME280;3707;43.618;25.342;2023-07-31T07:17:47;99677.84;;;26.88;100.00
7333;BME280;3707;43.618;25.342;2023-07-31T07:20:14;99677.16;;;26.69;100.00
7333;BME280;3707;43.618;25.342;2023-07-31T07:22:41;99680.88;;;27.11;100.00
7333;BME280;3707;43.618;25.342;2023-07-31T07:25:08;99676.63;;;27.53;100.00
7333;BME280;3707;43.618;25.342;2023-07-31T07:27:36;99671.88;;;27.72;100.00
7333;BME280;3707;43.618;25.342;2023-07-31T07:30:04;99692.06;;;27.90;100.00
7333;BME280;3707;43.618;25.342;2023-07-31T07:32:31;99682.38;;;27.89;100.00
7333;BME280;3707;43.618;25.342;2023-07-31T07:34:58;99670.38;;;27.68;100.00
7333;BME280;3707;43.618;25.342;2023-07-31T07:37:25;99691.97;;;27.64;100.00
7333;BME280;3707;43.618;25.342;2023-07-31T07:39:51;99694.91;;;28.01;100.00
7333;BME280;3707;43.618;25.342;2023-07-31T07:42:18;99696.06;;;28.26;100.00
7333;BME280;3707;43.618;25.342;2023-07-31T07:44:46;99701.97;;;28.02;100.00
7333;BME280;3707;43.618;25.342;2023-07-31T07:47:13;99701.19;;;27.72;100.00
7333;BME280;3707;43.618;25.342;2023-07-31T07:49:40;99704.72;;;27.29;100.00
7333;BME280;3707;43.618;25.342;2023-07-31T07:52:07;99705.44;;;27.17;100.00
7333;BME280;3707;43.618;25.342;2023-07-31T07:54:33;99708.13;;;27.31;100.00
7333;BME280;3707;43.618;25.342;2023-07-31T07:57:00;99708.88;;;27.33;100.00
7333;BME280;3707;43.618;25.342;2023-07-31T07:59:27;99699.97;;;27.78;100.00
7333;BME280;3707;43.618;25.342;2023-07-31T08:01:55;99690.44;;;27.74;100.00
7333;BME280;3707;43.618;25.342;2023-07-31T08:04:23;99692.66;;;28.10;100.00
7333;BME280;3707;43.618;25.342;2023-07-31T08:06:49;99705.50;;;28.17;100.00
7333;BME280;3707;43.618;25.342;2023-07-31T08:09:16;99669.19;;;28.00;100.00
7333;BME280;3707;43.618;25.342;2023-07-31T08:11:43;99706.69;;;28.40;100.00
7333;BME280;3707;43.618;25.342;2023-07-31T08:14:09;99715.91;;;28.63;100.00
7333;BME280;3707;43.618;25.342;2023-07-31T08:16:36;99711.25;;;28.52;100.00
7333;BME280;3707;43.618;25.342;2023-07-31T08:19:04;99709.91;;;28.59;100.00
7333;BME280;3707;43.618;25.342;2023-07-31T08:21:31;99697.88;;;28.66;100.00
7333;BME280;3707;43.618;25.342;2023-07-31T08:23:58;99718.06;;;28.84;100.00
7333;BME280;3707;43.618;25.342;2023-07-31T08:26:25;99718.56;;;28.77;100.00
7333;BME280;3707;43.618;25.342;2023-07-31T08:28:52;99710.81;;;28.31;100.00
7333;BME280;3707;43.618;25.342;2023-07-31T08:31:18;99717.00;;;28.46;100.00
7333;BME280;3707;43.618;25.342;2023-07-31T08:33:45;99665.00;;;28.66;100.00
7333;BME280;3707;43.618;25.342;2023-07-31T08:36:13;99696.16;;;28.65;100.00
7333;BME280;3707;43.618;25.342;2023-07-31T08:38:40;99705.75;;;29.09;99.92
7333;BME280;3707;43.618;25.342;2023-07-31T08:41:07;99711.03;;;28.69;94.95
7333;BME280;3707;43.618;25.342;2023-07-31T08:43:34;99716.16;;;28.31;99.47
7333;BME280;3707;43.618;25.342;2023-07-31T08:46:02;99711.50;;;28.21;100.00
7333;BME280;3707;43.618;25.342;2023-07-31T08:48:29;99715.84;;;27.65;100.00
7333;BME280;3707;43.618;25.342;2023-07-31T08:50:57;99700.09;;;27.17;100.00
7333;BME280;3707;43.618;25.342;2023-07-31T08:53:25;99712.38;;;26.89;100.00
7333;BME280;3707;43.618;25.342;2023-07-31T08:55:56;99711.13;;;27.10;100.00
7333;BME280;3707;43.618;25.342;2023-07-31T08:58:25;99676.47;;;26.96;100.00
7333;BME280;3707;43.618;25.342;2023-07-31T09:00:55;99707.94;;;27.34;100.00
7333;BME280;3707;43.618;25.342;2023-07-31T09:03:23;99704.63;;;27.74;100.00
7333;BME280;3707;43.618;25.342;2023-07-31T09:05:51;99714.16;;;28.06;100.00
7333;BME280;3707;43.618;25.342;2023-07-31T09:08:21;99708.22;;;28.44;99.95
7333;BME280;3707;43.618;25.342;2023-07-31T09:10:49;99718.09;;;28.56;100.00
7333;BME280;3707;43.618;25.342;2023-07-31T09:13:16;99717.19;;;28.84;98.60
7333;BME280;3707;43.618;25.342;2023-07-31T09:15:44;99717.94;;;29.13;94.18
7333;BME280;3707;43.618;25.342;2023-07-31T09:18:11;99713.22;;;29.03;93.17
7333;BME280;3707;43.618;25.342;2023-07-31T09:20:39;99703.59;;;28.74;94.53
7333;BME280;3707;43.618;25.342;2023-07-31T09:23:07;99722.84;;;28.65;93.62
7333;BME280;3707;43.618;25.342;2023-07-31T09:25:34;99713.88;;;28.66;93.30
7333;BME280;3707;43.618;25.342;2023-07-31T09:28:04;99709.19;;;28.43;96.68
7333;BME280;3707;43.618;25.342;2023-07-31T09:30:32;99716.00;;;28.47;96.50
7333;BME280;3707;43.618;25.342;2023-07-31T09:33:10;99716.13;;;28.45;96.94
7333;BME280;3707;43.618;25.342;2023-07-31T09:35:36;99712.97;;;28.53;95.66
7333;BME280;3707;43.618;25.342;2023-07-31T09:38:07;99715.22;;;28.73;93.26
7333;BME280;3707;43.618;25.342;2023-07-31T09:40:36;99717.16;;;28.57;94.86
7333;BME280;3707;43.618;25.342;2023-07-31T09:43:05;99716.19;;;28.58;95.84
7333;BME280;3707;43.618;25.342;2023-07-31T09:45:34;99707.94;;;28.89;90.91
7333;BME280;3707;43.618;25.342;2023-07-31T09:48:01;99712.69;;;29.38;87.90
7333;BME280;3707;43.618;25.342;2023-07-31T09:50:29;99710.91;;;29.24;90.85
7333;BME280;3707;43.618;25.342;2023-07-31T09:52:56;99708.41;;;29.48;87.44
7333;BME280;3707;43.618;25.342;2023-07-31T09:55:23;99713.44;;;29.65;86.29
7333;BME280;3707;43.618;25.342;2023-07-31T09:57:50;99714.84;;;29.83;86.06
7333;BME280;3707;43.618;25.342;2023-07-31T10:00:20;99706.41;;;30.02;84.37
7333;BME280;3707;43.618;25.342;2023-07-31T10:02:51;99716.44;;;30.11;84.24
7333;BME280;3707;43.618;25.342;2023-07-31T10:05:19;99705.31;;;30.05;83.38
7333;BME280;3707;43.618;25.342;2023-07-31T10:07:51;99715.91;;;29.68;85.05
7333;BME280;3707;43.618;25.342;2023-07-31T10:10:21;99714.81;;;29.58;86.41
7333;BME280;3707;43.618;25.342;2023-07-31T10:12:49;99719.38;;;29.95;85.34
7333;BME280;3707;43.618;25.342;2023-07-31T10:15:16;99722.50;;;29.37;88.12
7333;BME280;3707;43.618;25.342;2023-07-31T10:17:47;99709.47;;;29.45;87.35
7333;BME280;3707;43.618;25.342;2023-07-31T10:20:14;99716.53;;;29.72;86.80
7333;BME280;3707;43.618;25.342;2023-07-31T10:22:42;99696.53;;;29.27;87.42
7333;BME280;3707;43.618;25.342;2023-07-31T10:25:11;99715.78;;;29.05;91.06
7333;BME280;3707;43.618;25.342;2023-07-31T10:27:39;99704.97;;;29.33;88.97
7333;BME280;3707;43.618;25.342;2023-07-31T10:30:08;99719.00;;;29.62;86.61
7333;BME280;3707;43.618;25.342;2023-07-31T10:32:37;99717.63;;;30.20;82.25
7333;BME280;3707;43.618;25.342;2023-07-31T10:35:07;99710.28;;;30.47;83.00
7333;BME280;3707;43.618;25.342;2023-07-31T10:37:37;99710.28;;;30.83;80.07
7333;BME280;3707;43.618;25.342;2023-07-31T10:40:06;99705.63;;;30.98;77.08
7333;BME280;3707;43.618;25.342;2023-07-31T10:42:35;99695.84;;;30.73;78.93
7333;BME280;3707;43.618;25.342;2023-07-31T10:45:05;99712.53;;;30.53;80.75
7333;BME280;3707;43.618;25.342;2023-07-31T10:47:37;99687.81;;;30.37;83.64
7333;BME280;3707;43.618;25.342;2023-07-31T10:50:17;99709.53;;;30.81;82.70
7333;BME280;3707;43.618;25.342;2023-07-31T10:52:49;99697.34;;;31.36;78.27
7333;BME280;3707;43.618;25.342;2023-07-31T10:55:24;99650.28;;;31.10;77.18
7333;BME280;3707;43.618;25.342;2023-07-31T10:57:51;99703.75;;;31.46;76.38
7333;BME280;3707;43.618;25.342;2023-07-31T11:00:19;99696.38;;;31.37;78.10
7333;BME280;3707;43.618;25.342;2023-07-31T11:02:56;99705.09;;;31.52;79.20
7333;BME280;3707;43.618;25.342;2023-07-31T11:05:41;99693.75;;;31.13;77.13
7333;BME280;3707;43.618;25.342;2023-07-31T11:08:12;99693.72;;;30.78;79.69
7333;BME280;3707;43.618;25.342;2023-07-31T11:10:39;99690.03;;;30.56;81.03
7333;BME280;3707;43.618;25.342;2023-07-31T11:13:06;99692.66;;;30.68;80.10
7333;BME280;3707;43.618;25.342;2023-07-31T11:15:33;99685.25;;;30.48;81.93
7333;BME280;3707;43.618;25.342;2023-07-31T11:18:00;99688.69;;;30.97;79.34
7333;BME280;3707;43.618;25.342;2023-07-31T11:20:29;99688.25;;;31.38;78.74
7333;BME280;3707;43.618;25.342;2023-07-31T11:23:00;99653.88;;;30.74;78.47
7333;BME280;3707;43.618;25.342;2023-07-31T11:25:29;99617.47;;;30.24;80.24
7333;BME280;3707;43.618;25.342;2023-07-31T11:27:57;99679.00;;;30.60;82.22
7333;BME280;3707;43.618;25.342;2023-07-31T11:30:23;99672.84;;;30.34;82.85
7333;BME280;3707;43.618;25.342;2023-07-31T11:32:50;99673.94;;;30.32;84.61
7333;BME280;3707;43.618;25.342;2023-07-31T11:35:17;99667.13;;;30.15;87.26
7333;BME280;3707;43.618;25.342;2023-07-31T11:37:44;99661.63;;;30.42;85.70
7333;BME280;3707;43.618;25.342;2023-07-31T11:40:13;99664.50;;;30.39;84.73
7333;BME280;3707;43.618;25.342;2023-07-31T11:42:40;99648.25;;;29.55;88.42
7333;BME280;3707;43.618;25.342;2023-07-31T11:45:08;99652.09;;;29.38;89.20
7333;BME280;3707;43.618;25.342;2023-07-31T11:47:36;99655.31;;;29.04;92.78
7333;BME280;3707;43.618;25.342;2023-07-31T11:50:05;99646.94;;;28.83;94.35
7333;BME280;3707;43.618;25.342;2023-07-31T11:52:36;99641.00;;;28.92;94.62
7333;BME280;3707;43.618;25.342;2023-07-31T11:55:05;99636.53;;;29.05;96.56
7333;BME280;3707;43.618;25.342;2023-07-31T11:57:37;99614.88;;;28.71;100.00
7333;BME280;3707;43.618;25.342;2023-07-31T12:00:08;99630.59;;;28.75;100.00
7333;BME280;3707;43.618;25.342;2023-07-31T12:02:36;99624.13;;;28.92;100.00
7333;BME280;3707;43.618;25.342;2023-07-31T12:05:05;99600.69;;;28.83;100.00
7333;BME280;3707;43.618;25.342;2023-07-31T12:07:43;99627.00;;;29.01;100.00
7333;BME280;3707;43.618;25.342;2023-07-31T12:10:11;99628.72;;;29.02;100.00
7333;BME280;3707;43.618;25.342;2023-07-31T12:12:39;99627.13;;;29.00;100.00
7333;BME280;3707;43.618;25.342;2023-07-31T12:15:14;99617.63;;;29.09;100.00
7333;BME280;3707;43.618;25.342;2023-07-31T12:17:41;99610.47;;;28.96;100.00
7333;BME280;3707;43.618;25.342;2023-07-31T12:20:09;99616.53;;;28.98;97.92
7333;BME280;3707;43.618;25.342;2023-07-31T12:22:36;99609.41;;;29.12;98.61
7333;BME280;3707;43.618;25.342;2023-07-31T12:25:03;99620.97;;;29.25;96.67
7333;BME280;3707;43.618;25.342;2023-07-31T12:27:32;99620.34;;;29.34;96.56
7333;BME280;3707;43.618;25.342;2023-07-31T12:30:01;99611.88;;;29.78;94.04
7333;BME280;3707;43.618;25.342;2023-07-31T12:32:30;99607.56;;;30.00;90.68
7333;BME280;3707;43.618;25.342;2023-07-31T12:34:59;99617.22;;;30.27;89.47
7333;BME280;3707;43.618;25.342;2023-07-31T12:37:26;99617.88;;;30.78;88.63
7333;BME280;3707;43.618;25.342;2023-07-31T12:39:54;99623.16;;;30.90;86.95
7333;BME280;3707;43.618;25.342;2023-07-31T12:42:21;99610.22;;;31.08;84.44
7333;BME280;3707;43.618;25.342;2023-07-31T12:44:47;99610.88;;;31.34;83.15
7333;BME280;3707;43.618;25.342;2023-07-31T12:47:15;99556.78;;;30.83;83.80
7333;BME280;3707;43.618;25.342;2023-07-31T12:49:42;99617.75;;;31.03;86.92
7333;BME280;3707;43.618;25.342;2023-07-31T12:52:09;99613.06;;;31.18;86.57
7333;BME280;3707;43.618;25.342;2023-07-31T12:54:36;99613.63;;;30.86;86.69
7333;BME280;3707;43.618;25.342;2023-07-31T12:57:03;99613.59;;;30.75;88.77
7333;BME280;3707;43.618;25.342;2023-07-31T12:59:30;99604.06;;;30.60;91.63
7333;BME280;3707;43.618;25.342;2023-07-31T13:01:56;99588.81;;;31.30;85.04
7333;BME280;3707;43.618;25.342;2023-07-31T13:04:24;99583.59;;;31.18;83.86